Time;durP1;ratioP1;P1;durP2;ratioP2;P2;SDS_P1;SDS_P2;PMS_P1;PMS_P2;Temp;Humidity;BMP_temperature;BMP_pressure;BME280_temperature;BME280_humidity;BME280_pressure;Samples;Min_cycle;Max_cycle;Signal;HPM_P1;HPM_P2
2022/07/24 00:01:10;;;;;;;5.93;2.17;;;17.40;99.90;;;;;;5115657;28;20541;-76
2022/07/24 00:03:35;;;;;;;3.33;2.03;;;17.40;99.90;;;;;;5116940;28;20388;-76
2022/07/24 00:06:02;;;;;;;2.95;2.38;;;17.70;99.90;;;;;;5117272;28;20030;-75
2022/07/24 00:08:28;;;;;;;3.92;1.70;;;17.40;99.90;;;;;;5115553;28;20097;-74
2022/07/24 00:10:53;;;;;;;4.15;2.47;;;17.40;99.90;;;;;;5116741;28;20102;-74
2022/07/24 00:13:19;;;;;;;3.92;2.40;;;17.60;99.90;;;;;;5116828;28;20511;-74
2022/07/24 00:15:46;;;;;;;3.05;2.00;;;17.30;99.90;;;;;;5116922;28;20381;-74
2022/07/24 00:18:12;;;;;;;5.53;3.33;;;17.40;99.90;;;;;;5115474;28;20024;-74
2022/07/24 00:20:38;;;;;;;4.70;2.67;;;17.30;99.90;;;;;;5116833;28;20518;-74
2022/07/24 00:23:03;;;;;;;4.47;2.72;;;17.40;99.90;;;;;;5116464;28;20020;-74
2022/07/24 00:25:29;;;;;;;5.97;2.85;;;17.40;99.90;;;;;;5116775;28;20027;-74
2022/07/24 00:27:54;;;;;;;4.93;3.10;;;17.40;99.90;;;;;;5116539;28;20094;-74
2022/07/24 00:30:20;;;;;;;5.22;3.85;;;17.40;99.90;;;;;;5116432;28;20089;-74
2022/07/24 00:32:45;;;;;;;6.50;2.60;;;17.40;99.90;;;;;;5115126;28;20016;-74
2022/07/24 00:35:13;;;;;;;5.05;3.17;;;17.40;99.90;;;;;;5116333;28;20027;-74
2022/07/24 00:37:38;;;;;;;4.20;2.80;;;17.40;99.90;;;;;;5116335;28;20047;-74
2022/07/24 00:40:05;;;;;;;7.10;2.85;;;17.40;99.90;;;;;;5114887;28;20035;-75
2022/07/24 00:42:30;;;;;;;5.95;3.38;;;17.30;99.90;;;;;;5116397;28;20069;-74
2022/07/24 00:44:56;;;;;;;5.43;3.42;;;17.30;99.90;;;;;;5116161;28;20421;-74
2022/07/24 00:47:22;;;;;;;5.53;3.47;;;17.30;99.90;;;;;;5116125;28;20027;-74
2022/07/24 00:49:48;;;;;;;6.00;3.53;;;17.40;99.90;;;;;;5114764;28;20020;-74
2022/07/24 00:52:13;;;;;;;5.30;3.40;;;17.30;99.90;;;;;;5114803;28;20112;-74
2022/07/24 00:54:39;;;;;;;6.22;2.97;;;17.30;99.90;;;;;;5115992;28;20027;-74
2022/07/24 00:57:05;;;;;;;5.70;3.65;;;17.30;99.90;;;;;;5115908;28;20484;-74
2022/07/24 00:59:32;;;;;;;6.22;3.65;;;17.20;99.90;;;;;;5115888;28;20079;-74
2022/07/24 01:01:57;;;;;;;6.00;3.78;;;17.20;99.90;;;;;;5114607;28;20019;-74
2022/07/24 01:04:23;;;;;;;10.82;3.92;;;17.20;99.90;;;;;;5116283;27;20047;-74
2022/07/24 01:06:48;;;;;;;6.55;3.78;;;17.20;99.90;;;;;;5115797;28;20024;-74
2022/07/24 01:09:15;;;;;;;9.55;4.53;;;17.10;99.90;;;;;;5116204;28;20376;-74
2022/07/24 01:11:42;;;;;;;7.53;4.00;;;17.10;99.90;;;;;;5114722;28;20458;-74
2022/07/24 01:14:08;;;;;;;5.40;3.42;;;17.10;99.90;;;;;;5115529;28;20055;-74
2022/07/24 01:16:35;;;;;;;6.32;4.43;;;17.10;99.90;;;;;;5114328;28;20072;-74
2022/07/24 01:19:01;;;;;;;7.97;4.05;;;17.00;99.90;;;;;;5115642;28;20031;-76
2022/07/24 01:21:26;;;;;;;7.10;3.83;;;17.00;99.90;;;;;;5114103;28;20016;-74
2022/07/24 01:23:52;;;;;;;7.35;4.35;;;17.00;99.90;;;;;;5114107;28;20109;-74
2022/07/24 01:26:19;;;;;;;7.65;4.75;;;17.00;99.90;;;;;;5115389;28;20376;-74
2022/07/24 01:28:45;;;;;;;8.82;4.35;;;17.00;99.90;;;;;;5114063;28;20027;-74
2022/07/24 01:31:10;;;;;;;8.45;4.70;;;16.90;99.90;;;;;;5115184;28;20023;-74
2022/07/24 01:33:36;;;;;;;7.70;4.80;;;17.00;99.90;;;;;;5114290;28;20073;-74
2022/07/24 01:36:02;;;;;;;8.02;5.15;;;16.80;99.90;;;;;;5115376;28;20018;-74
2022/07/24 01:38:28;;;;;;;6.90;4.57;;;16.80;99.90;;;;;;5115105;28;20073;-74
2022/07/24 01:40:53;;;;;;;8.73;5.35;;;16.80;99.90;;;;;;5114989;28;20092;-75
2022/07/24 01:43:19;;;;;;;8.43;4.90;;;16.80;99.90;;;;;;5113692;28;20027;-74
2022/07/24 01:45:45;;;;;;;8.85;5.40;;;16.80;99.90;;;;;;5113742;28;20092;-74
2022/07/24 01:48:11;;;;;;;8.35;5.25;;;16.80;99.90;;;;;;5113710;28;20414;-74
2022/07/24 01:50:36;;;;;;;8.20;5.30;;;16.90;99.90;;;;;;5114844;28;20126;-74
2022/07/24 01:53:02;;;;;;;9.85;5.28;;;16.80;99.90;;;;;;5115040;28;20016;-74
2022/07/24 01:55:28;;;;;;;7.97;5.10;;;16.80;99.90;;;;;;5114844;28;20442;-74
2022/07/24 01:57:54;;;;;;;7.70;4.75;;;16.80;99.90;;;;;;5114786;28;20114;-74
2022/07/24 02:00:19;;;;;;;9.57;5.28;;;16.80;99.90;;;;;;5114627;28;20046;-74
2022/07/24 02:02:45;;;;;;;9.95;5.50;;;16.80;99.90;;;;;;5114618;28;20023;-74
2022/07/24 02:05:15;;;;;;;7.15;4.72;;;16.80;99.90;;;;;;5113390;28;20380;-74
2022/07/24 02:07:42;;;;;;;9.70;4.47;;;16.80;99.90;;;;;;5114921;27;20073;-74
2022/07/24 02:10:10;;;;;;;7.35;4.35;;;16.80;99.90;;;;;;5114744;28;20019;-74
2022/07/24 02:12:35;;;;;;;8.27;4.45;;;16.80;99.90;;;;;;5114338;28;20038;-74
2022/07/24 02:15:01;;;;;;;7.97;4.18;;;16.80;99.90;;;;;;5113065;28;20478;-74
2022/07/24 02:17:27;;;;;;;7.10;4.07;;;16.70;99.90;;;;;;5114249;28;20480;-74
2022/07/24 02:19:52;;;;;;;7.53;4.15;;;16.70;99.90;;;;;;5115003;28;20055;-74
2022/07/24 02:22:18;;;;;;;6.68;3.80;;;16.70;99.90;;;;;;5114321;28;20434;-74
2022/07/24 02:24:43;;;;;;;8.30;4.05;;;16.70;99.90;;;;;;5114231;28;20024;-74
2022/07/24 02:27:09;;;;;;;9.52;4.50;;;16.70;99.90;;;;;;5114258;28;20068;-74
2022/07/24 02:29:34;;;;;;;7.18;4.07;;;16.60;99.90;;;;;;5114402;28;20096;-74
2022/07/24 02:32:00;;;;;;;7.63;4.53;;;16.50;99.90;;;;;;5114186;28;20016;-74
2022/07/24 02:34:26;;;;;;;7.47;4.38;;;16.50;99.90;;;;;;5114368;28;20468;-75
2022/07/24 02:36:52;;;;;;;5.40;3.65;;;16.50;99.90;;;;;;5112859;28;20027;-76
2022/07/24 02:39:17;;;;;;;6.43;3.85;;;16.50;99.90;;;;;;5114063;28;20464;-75
2022/07/24 02:41:43;;;;;;;8.20;4.50;;;16.40;99.90;;;;;;5114065;28;20027;-76
2022/07/24 02:44:09;;;;;;;8.65;4.00;;;16.40;99.90;;;;;;5114555;28;20023;-76
2022/07/24 02:46:34;;;;;;;9.85;4.43;;;16.40;99.90;;;;;;5114028;28;20016;-75
2022/07/24 02:49:00;;;;;;;7.95;4.60;;;16.60;99.90;;;;;;5113969;28;20016;-76
2022/07/24 02:51:25;;;;;;;8.27;5.03;;;16.90;99.90;;;;;;5113878;28;20552;-76
2022/07/24 02:53:51;;;;;;;8.00;4.22;;;16.30;99.90;;;;;;5113959;28;20491;-75
2022/07/24 02:56:16;;;;;;;8.75;4.70;;;16.20;99.90;;;;;;5112717;28;20076;-76
2022/07/24 02:58:42;;;;;;;6.32;4.03;;;16.20;99.90;;;;;;5113785;28;20081;-75
2022/07/24 03:01:07;;;;;;;10.32;5.15;;;16.20;99.90;;;;;;5113748;28;20027;-75
2022/07/24 03:03:33;;;;;;;7.63;4.80;;;16.20;99.90;;;;;;5112386;28;20034;-76
2022/07/24 03:05:58;;;;;;;9.95;4.78;;;16.70;99.90;;;;;;5113714;28;20016;-76
2022/07/24 03:08:24;;;;;;;10.07;5.30;;;16.20;99.90;;;;;;5112860;28;20031;-76
2022/07/24 03:10:49;;;;;;;8.98;4.65;;;16.10;99.90;;;;;;5113705;28;20028;-76
2022/07/24 03:13:15;;;;;;;8.93;5.57;;;16.10;99.90;;;;;;5114264;28;20526;-76
2022/07/24 03:15:42;;;;;;;8.77;5.45;;;16.10;99.90;;;;;;5113724;28;20023;-76
2022/07/24 03:18:08;;;;;;;11.70;6.30;;;16.10;99.90;;;;;;5114250;28;20024;-76
2022/07/24 03:20:34;;;;;;;15.40;6.18;;;16.00;99.90;;;;;;5112226;28;20533;-76
2022/07/24 03:22:59;;;;;;;8.70;5.22;;;16.00;99.90;;;;;;5114473;28;20103;-76
2022/07/24 03:25:25;;;;;;;9.15;5.57;;;16.00;99.90;;;;;;5113566;28;20016;-76
2022/07/24 03:27:51;;;;;;;10.18;5.97;;;15.90;99.90;;;;;;5114782;28;20059;-75
2022/07/24 03:30:17;;;;;;;9.98;5.63;;;15.90;99.90;;;;;;5116380;28;20069;-75
2022/07/24 03:32:43;;;;;;;9.35;6.50;;;16.00;99.90;;;;;;5116414;28;20459;-76
2022/07/24 03:35:09;;;;;;;12.27;6.05;;;15.90;99.90;;;;;;5117620;28;20457;-76
2022/07/24 03:37:35;;;;;;;9.68;6.57;;;16.00;99.90;;;;;;5116267;28;20019;-76
2022/07/24 03:40:01;;;;;;;11.85;6.78;;;15.90;99.90;;;;;;5117668;28;20030;-76
2022/07/24 03:42:27;;;;;;;10.70;5.80;;;15.90;99.90;;;;;;5117627;28;20094;-76
2022/07/24 03:44:53;;;;;;;12.70;6.72;;;15.90;99.90;;;;;;5116219;28;20022;-76
2022/07/24 03:47:19;;;;;;;15.73;6.68;;;15.90;99.90;;;;;;5117353;28;20438;-76
2022/07/24 03:49:44;;;;;;;12.32;7.10;;;15.90;99.90;;;;;;5117287;28;20051;-76
2022/07/24 03:52:10;;;;;;;14.48;7.40;;;16.00;99.90;;;;;;5116042;28;20051;-76
2022/07/24 03:54:36;;;;;;;14.50;6.95;;;15.90;99.90;;;;;;5117589;28;20015;-76
2022/07/24 03:57:02;;;;;;;12.48;6.97;;;16.30;99.90;;;;;;5117716;28;20055;-75
2022/07/24 03:59:27;;;;;;;16.40;8.75;;;15.80;99.90;;;;;;5117022;27;20055;-76
2022/07/24 04:01:53;;;;;;;14.70;7.07;;;15.90;99.90;;;;;;5117061;28;20028;-76
2022/07/24 04:04:18;;;;;;;14.35;6.95;;;15.80;99.90;;;;;;5116972;28;20535;-76
2022/07/24 04:06:44;;;;;;;14.32;7.10;;;15.90;99.90;;;;;;5117097;28;20043;-75
2022/07/24 04:09:10;;;;;;;13.95;7.78;;;15.90;99.90;;;;;;5116917;28;20027;-76
2022/07/24 04:11:36;;;;;;;18.15;8.02;;;15.90;99.90;;;;;;5116679;28;20497;-76
2022/07/24 04:14:01;;;;;;;15.35;8.05;;;15.80;99.90;;;;;;5116848;28;20024;-76
2022/07/24 04:16:27;;;;;;;14.68;7.80;;;15.80;99.90;;;;;;5116807;28;20024;-76
2022/07/24 04:18:53;;;;;;;12.38;7.93;;;15.80;99.90;;;;;;5116776;28;20023;-76
2022/07/24 04:21:19;;;;;;;15.73;8.20;;;15.80;99.90;;;;;;5116657;28;20023;-76
2022/07/24 04:23:44;;;;;;;16.35;9.63;;;15.80;99.90;;;;;;5115367;28;20031;-76
2022/07/24 04:26:10;;;;;;;16.52;9.15;;;15.80;99.90;;;;;;5116658;28;20015;-76
2022/07/24 04:28:36;;;;;;;15.35;8.38;;;15.90;99.90;;;;;;5116595;28;20069;-76
2022/07/24 04:31:02;;;;;;;18.85;10.32;;;15.80;99.90;;;;;;5115226;28;20429;-75
2022/07/24 04:33:27;;;;;;;18.33;9.60;;;15.80;99.90;;;;;;5116482;28;20028;-75
2022/07/24 04:35:53;;;;;;;22.58;11.82;;;15.80;99.90;;;;;;5115117;28;20027;-75
2022/07/24 04:38:19;;;;;;;18.48;11.30;;;14.10;99.90;;;;;;5116067;28;20034;-75
2022/07/24 04:40:44;;;;;;;18.63;11.73;;;16.00;99.90;;;;;;5116153;28;20079;-75
2022/07/24 04:43:10;;;;;;;22.38;11.95;;;16.10;99.90;;;;;;5116231;28;20030;-76
2022/07/24 04:45:36;;;;;;;18.95;11.82;;;16.10;99.90;;;;;;5116528;28;20015;-76
2022/07/24 04:48:02;;;;;;;17.65;10.10;;;16.10;99.90;;;;;;5114898;28;20016;-76
2022/07/24 04:50:27;;;;;;;20.52;11.02;;;16.20;99.90;;;;;;5116385;28;20483;-76
2022/07/24 04:52:53;;;;;;;18.95;11.25;;;16.30;99.90;;;;;;5116140;28;20023;-76
2022/07/24 04:55:19;;;;;;;24.17;11.75;;;16.40;99.90;;;;;;5116011;28;20030;-76
2022/07/24 04:57:44;;;;;;;20.05;11.30;;;16.50;99.90;;;;;;5116062;28;20035;-76
2022/07/24 05:00:12;;;;;;;23.00;11.75;;;16.50;99.90;;;;;;5115893;28;20027;-75
2022/07/24 05:02:38;;;;;;;20.08;12.23;;;16.70;99.90;;;;;;5116094;28;20042;-75
2022/07/24 05:05:04;;;;;;;18.85;11.32;;;16.70;99.90;;;;;;5115816;28;20063;-75
2022/07/24 05:07:30;;;;;;;20.35;11.80;;;16.80;99.90;;;;;;5115609;27;20112;-75
2022/07/24 05:09:57;;;;;;;21.27;11.43;;;17.00;99.90;;;;;;5114431;28;20460;-75
2022/07/24 05:12:23;;;;;;;20.60;11.43;;;17.10;99.90;;;;;;5115640;28;20024;-76
2022/07/24 05:14:48;;;;;;;20.35;11.05;;;17.20;99.90;;;;;;5115935;28;20385;-76
2022/07/24 05:17:14;;;;;;;20.35;11.07;;;17.30;99.90;;;;;;5115673;28;20049;-76
2022/07/24 05:19:40;;;;;;;19.60;10.85;;;17.40;99.90;;;;;;5115479;28;20495;-75
2022/07/24 05:22:06;;;;;;;16.88;9.32;;;17.50;99.90;;;;;;5114329;28;20050;-76
2022/07/24 05:24:31;;;;;;;16.70;9.98;;;17.60;99.90;;;;;;5115458;28;20465;-76
2022/07/24 05:26:57;;;;;;;20.67;10.00;;;17.70;99.90;;;;;;5115418;28;20016;-76
2022/07/24 05:29:22;;;;;;;16.23;8.95;;;17.90;99.90;;;;;;5115347;28;20081;-75
2022/07/24 05:31:49;;;;;;;15.35;8.50;;;18.00;99.90;;;;;;5115651;28;20377;-75
2022/07/24 05:34:14;;;;;;;14.38;7.22;;;18.10;99.90;;;;;;5115159;28;20109;-76
2022/07/24 05:36:40;;;;;;;16.05;7.35;;;18.30;99.90;;;;;;5115155;28;20028;-75
2022/07/24 05:39:06;;;;;;;17.85;7.72;;;18.40;99.90;;;;;;5115232;28;20027;-76
2022/07/24 05:41:31;;;;;;;11.40;6.40;;;18.50;99.90;;;;;;5113851;28;20027;-76
2022/07/24 05:43:57;;;;;;;10.77;5.85;;;18.60;99.90;;;;;;5113791;28;20030;-75
2022/07/24 05:46:22;;;;;;;12.35;5.60;;;18.80;99.90;;;;;;5113988;28;20024;-75
2022/07/24 05:48:48;;;;;;;10.48;5.03;;;18.90;99.90;;;;;;5115478;28;20054;-75
2022/07/24 05:51:14;;;;;;;7.78;4.00;;;19.00;99.90;;;;;;5114131;28;20023;-76
2022/07/24 05:53:40;;;;;;;9.13;4.22;;;19.10;99.90;;;;;;5115054;28;20030;-76
2022/07/24 05:56:06;;;;;;;8.25;2.38;;;19.20;99.90;;;;;;5114819;28;20492;-76
2022/07/24 05:58:32;;;;;;;3.80;1.77;;;19.30;99.90;;;;;;5115157;28;20024;-76
2022/07/24 06:00:57;;;;;;;3.75;1.33;;;19.40;99.90;;;;;;5114833;28;20470;-76
2022/07/24 06:03:23;;;;;;;4.65;1.08;;;19.50;99.90;;;;;;5114755;28;20207;-75
2022/07/24 06:05:49;;;;;;;3.28;1.15;;;19.70;99.90;;;;;;5114734;28;20015;-75
2022/07/24 06:08:14;;;;;;;3.83;1.13;;;19.80;99.90;;;;;;5114578;28;20028;-76
2022/07/24 06:10:40;;;;;;;2.00;0.50;;;19.80;99.90;;;;;;5113295;28;20027;-76
2022/07/24 06:13:07;;;;;;;1.40;0.75;;;19.90;99.90;;;;;;5114333;28;20135;-76
2022/07/24 06:15:32;;;;;;;1.63;0.60;;;19.90;99.90;;;;;;5114599;28;20059;-75
2022/07/24 06:17:58;;;;;;;4.40;1.15;;;20.00;99.90;;;;;;5113199;28;20028;-76
2022/07/24 06:20:24;;;;;;;3.47;1.00;;;20.10;99.90;;;;;;5114429;28;20028;-76
2022/07/24 06:22:49;;;;;;;3.25;0.88;;;20.20;99.90;;;;;;5113117;28;20016;-75
2022/07/24 06:25:16;;;;;;;2.47;0.50;;;20.30;99.90;;;;;;5114417;28;20016;-76
2022/07/24 06:27:47;;;;;;;0.65;0.43;;;20.40;99.90;;;;;;5114635;28;20102;-75
2022/07/24 06:30:15;;;;;;;0.80;0.57;;;20.40;99.90;;;;;;5113063;28;20088;-76
2022/07/24 06:32:41;;;;;;;2.85;0.40;;;20.60;99.90;;;;;;5114265;28;20015;-76
2022/07/24 06:35:06;;;;;;;1.88;0.70;;;20.60;99.90;;;;;;5114508;28;20488;-75
2022/07/24 06:37:32;;;;;;;3.53;0.68;;;20.60;99.90;;;;;;5114145;28;20020;-76
2022/07/24 06:39:58;;;;;;;2.00;0.47;;;20.80;99.90;;;;;;5114243;28;20468;-76
2022/07/24 06:42:24;;;;;;;3.65;0.50;;;20.90;99.90;;;;;;5114233;28;20476;-76
2022/07/24 06:44:49;;;;;;;1.77;0.85;;;21.00;99.90;;;;;;5112792;28;20026;-76
2022/07/24 06:47:15;;;;;;;4.60;1.08;;;21.10;99.90;;;;;;5114073;28;20411;-76
2022/07/24 06:49:40;;;;;;;1.50;0.90;;;21.20;99.90;;;;;;5114003;28;20464;-76
2022/07/24 06:52:06;;;;;;;0.95;0.43;;;21.20;99.90;;;;;;5113824;28;20019;-76
2022/07/24 06:54:31;;;;;;;1.60;0.50;;;21.20;99.90;;;;;;5113936;28;20027;-76
2022/07/24 06:56:57;;;;;;;1.45;0.35;;;21.30;99.90;;;;;;5113893;28;20480;-76
2022/07/24 06:59:23;;;;;;;2.40;0.40;;;21.40;99.90;;;;;;5113924;28;20480;-76
2022/07/24 07:01:48;;;;;;;0.98;0.20;;;21.50;99.90;;;;;;5112535;28;20572;-76
2022/07/24 07:04:14;;;;;;;1.67;0.80;;;21.60;99.90;;;;;;5113885;28;20111;-76
2022/07/24 07:06:40;;;;;;;3.50;0.40;;;21.90;99.90;;;;;;5113512;23;20056;-76
2022/07/24 07:09:05;;;;;;;1.35;0.57;;;21.80;99.90;;;;;;5073344;28;20564;-76
2022/07/24 07:11:31;;;;;;;1.33;0.57;;;21.80;99.90;;;;;;5073425;28;20077;-76
2022/07/24 07:13:56;;;;;;;3.83;0.68;;;21.80;99.90;;;;;;5073177;28;20480;-76
2022/07/24 07:16:22;;;;;;;2.67;0.40;;;21.90;99.90;;;;;;5073382;28;20028;-76
2022/07/24 07:18:47;;;;;;;2.38;0.50;;;22.00;99.90;;;;;;5073754;28;20516;-76
2022/07/24 07:21:13;;;;;;;1.27;0.40;;;22.10;99.90;;;;;;5073126;28;20029;-75
2022/07/24 07:23:39;;;;;;;2.25;0.88;;;22.20;99.90;;;;;;5073122;28;20028;-76
2022/07/24 07:26:04;;;;;;;2.15;0.47;;;22.40;99.90;;;;;;5073142;28;20120;-76
2022/07/24 07:28:30;;;;;;;4.15;0.82;;;22.30;99.90;;;;;;5071871;28;20024;-76
2022/07/24 07:30:55;;;;;;;2.50;0.65;;;22.50;99.90;;;;;;5073001;28;20020;-76
2022/07/24 07:33:21;;;;;;;3.42;0.20;;;22.60;99.90;;;;;;5073114;28;20388;-76
2022/07/24 07:35:47;;;;;;;6.35;0.82;;;22.80;99.90;;;;;;5071779;28;20465;-76
2022/07/24 07:38:12;;;;;;;2.50;0.90;;;23.00;99.90;;;;;;5072936;28;20029;-76
2022/07/24 07:40:38;;;;;;;1.85;0.50;;;23.20;99.90;;;;;;5071774;28;20374;-76
2022/07/24 07:43:04;;;;;;;2.47;0.57;;;23.40;99.90;;;;;;5071631;28;20025;-75
2022/07/24 07:45:29;;;;;;;2.75;0.57;;;23.60;99.90;;;;;;5072907;28;20033;-76
2022/07/24 07:47:55;;;;;;;2.35;0.35;;;23.70;99.90;;;;;;5073238;28;20143;-76
2022/07/24 07:50:20;;;;;;;1.48;0.28;;;23.70;99.90;;;;;;5072877;28;20021;-76
2022/07/24 07:52:46;;;;;;;2.47;0.28;;;23.60;99.90;;;;;;5073060;28;20017;-76
2022/07/24 07:55:12;;;;;;;2.60;0.35;;;23.60;99.90;;;;;;5072938;28;20017;-76
2022/07/24 07:57:39;;;;;;;1.38;0.47;;;23.60;99.90;;;;;;5072686;28;20021;-76
2022/07/24 08:00:06;;;;;;;3.40;0.25;;;23.50;99.90;;;;;;5071851;28;20028;-76
2022/07/24 08:02:31;;;;;;;1.55;0.38;;;23.40;99.90;;;;;;5072764;28;20424;-76
2022/07/24 08:04:57;;;;;;;0.82;0.20;;;23.40;99.90;;;;;;5073148;28;20020;-76
2022/07/24 08:07:22;;;;;;;0.65;0.30;;;23.20;99.90;;;;;;5072700;28;20366;-76
2022/07/24 08:09:48;;;;;;;2.45;0.70;;;23.20;99.90;;;;;;5071642;28;20027;-76
2022/07/24 08:12:13;;;;;;;2.33;0.30;;;23.30;99.90;;;;;;5072692;28;20031;-76
2022/07/24 08:14:39;;;;;;;3.40;0.93;;;23.40;99.90;;;;;;5074936;28;20055;-76
2022/07/24 08:17:04;;;;;;;0.75;0.30;;;23.40;99.90;;;;;;5074976;28;20054;-76
2022/07/24 08:19:30;;;;;;;0.88;0.40;;;23.60;99.90;;;;;;5074807;28;20028;-76
2022/07/24 08:21:55;;;;;;;4.05;0.20;;;23.80;99.90;;;;;;5076073;28;20054;-76
2022/07/24 08:24:21;;;;;;;1.20;0.30;;;24.00;99.90;;;;;;5075905;28;20021;-76
2022/07/24 08:26:50;;;;;;;1.50;0.52;;;24.10;99.90;;;;;;5075974;28;20013;-76
2022/07/24 08:29:16;;;;;;;2.33;0.22;;;24.10;99.90;;;;;;5075986;28;20085;-76
2022/07/24 08:31:42;;;;;;;1.55;0.20;;;24.30;99.90;;;;;;5076011;28;20028;-76
2022/07/24 08:34:08;;;;;;;1.10;0.30;;;24.40;99.90;;;;;;5076473;28;20461;-76
2022/07/24 08:36:33;;;;;;;2.30;0.15;;;24.50;99.90;;;;;;5074630;28;20473;-76
2022/07/24 08:38:59;;;;;;;0.47;0.30;;;24.40;99.90;;;;;;5075996;28;20021;-76
2022/07/24 08:41:25;;;;;;;1.15;0.20;;;24.20;99.60;;;;;;5075619;28;20141;-76
2022/07/24 08:43:51;;;;;;;2.80;0.20;;;23.90;99.90;;;;;;5076121;28;20082;-76
2022/07/24 08:46:16;;;;;;;0.70;0.20;;;23.90;99.90;;;;;;5075672;28;20024;-76
2022/07/24 08:48:44;;;;;;;2.28;0.60;;;24.00;99.50;;;;;;5074374;28;20029;-76
2022/07/24 08:51:11;;;;;;;0.80;0.17;;;24.20;99.70;;;;;;5074377;28;20104;-76
2022/07/24 08:53:36;;;;;;;0.73;0.30;;;24.20;99.50;;;;;;5075467;28;20029;-76
2022/07/24 08:56:02;;;;;;;1.48;0.30;;;24.30;99.30;;;;;;5075835;28;20385;-76
2022/07/24 08:58:27;;;;;;;3.08;0.30;;;24.40;98.00;;;;;;5074143;28;20069;-76
2022/07/24 09:00:53;;;;;;;1.83;0.10;;;24.50;98.90;;;;;;5075334;28;20032;-76
2022/07/24 09:03:18;;;;;;;1.38;0.32;;;24.50;97.70;;;;;;5074060;28;20052;-76
2022/07/24 09:05:54;;;;;;;3.88;0.80;;;24.60;98.60;;;;;;5075345;28;20067;-76
2022/07/24 09:08:19;;;;;;;1.48;0.20;;;24.80;99.10;;;;;;5075145;28;20021;-76
2022/07/24 09:10:59;;;;;;;3.03;0.20;;;24.80;97.50;;;;;;5073810;28;20078;-76
2022/07/24 09:13:26;;;;;;;0.45;0.08;;;24.90;97.40;;;;;;5075441;28;20097;-76
2022/07/24 09:15:53;;;;;;;1.25;0.30;;;25.00;96.70;;;;;;5073707;28;20021;-76
2022/07/24 09:18:32;;;;;;;1.35;0.65;;;25.00;95.90;;;;;;5074895;28;20024;-76
2022/07/24 09:21:00;;;;;;;1.50;0.10;;;25.00;97.40;;;;;;5073697;28;20079;-76
2022/07/24 09:23:26;;;;;;;0.93;0.17;;;25.00;96.40;;;;;;5074849;28;20031;-76
2022/07/24 09:25:53;;;;;;;0.40;0.20;;;25.10;96.20;;;;;;5072564;28;20024;-76
2022/07/24 09:28:19;;;;;;;1.00;0.15;;;25.10;95.00;;;;;;5074817;28;20169;-76
2022/07/24 09:30:47;;;;;;;1.05;0.20;;;25.20;95.60;;;;;;5074657;28;20035;-76
2022/07/24 09:33:13;;;;;;;1.50;0.10;;;25.40;94.70;;;;;;5075143;28;20024;-76
2022/07/24 09:35:47;;;;;;;0.95;0.20;;;25.50;94.50;;;;;;5074860;28;20367;-76
2022/07/24 09:38:15;;;;;;;0.57;0.00;;;25.50;94.10;;;;;;5075375;28;20020;-76
2022/07/24 09:40:46;;;;;;;2.80;0.10;;;25.60;93.60;;;;;;5074585;28;20104;-76
2022/07/24 09:43:30;;;;;;;1.23;0.20;;;25.60;92.70;;;;;;5074499;28;20024;-76
2022/07/24 09:46:10;;;;;;;1.42;0.15;;;25.60;94.10;;;;;;5074568;28;20020;-76
2022/07/24 09:48:57;;;;;;;0.43;0.10;;;25.70;93.50;;;;;;5074423;28;20370;-76
2022/07/24 09:51:24;;;;;;;0.47;0.00;;;25.80;94.80;;;;;;5073075;28;20035;-76
2022/07/24 09:53:59;;;;;;;0.45;0.20;;;25.90;93.20;;;;;;5073166;28;20070;-76
2022/07/24 09:56:26;;;;;;;0.90;0.10;;;26.00;93.30;;;;;;5074306;28;20048;-76
2022/07/24 09:58:54;;;;;;;0.38;0.10;;;26.20;93.40;;;;;;5074543;28;20102;-76
2022/07/24 10:01:25;;;;;;;0.68;0.30;;;26.30;92.50;;;;;;5074110;28;20493;-76
2022/07/24 10:03:52;;;;;;;0.20;0.10;;;26.50;91.60;;;;;;5074308;28;20025;-76
2022/07/24 10:06:26;;;;;;;3.97;0.10;;;26.50;90.40;;;;;;5073740;28;20051;-77
2022/07/24 10:08:54;;;;;;;1.00;0.10;;;26.50;91.10;;;;;;5072917;28;20036;-76
2022/07/24 10:11:21;;;;;;;0.10;0.00;;;26.40;90.40;;;;;;5072662;28;20640;-76
2022/07/24 10:13:47;;;;;;;0.63;0.10;;;26.50;90.60;;;;;;5073928;28;20025;-76
2022/07/24 10:16:13;;;;;;;0.32;0.00;;;26.60;90.70;;;;;;5072597;28;20363;-76
2022/07/24 10:18:55;;;;;;;0.30;0.10;;;26.70;87.30;;;;;;5072510;28;20090;-76
2022/07/24 10:21:32;;;;;;;0.10;0.00;;;26.70;88.50;;;;;;5073754;28;20060;-76
2022/07/24 10:24:07;;;;;;;0.50;0.10;;;26.60;90.20;;;;;;5072475;28;20025;-77
2022/07/24 10:26:34;;;;;;;1.00;0.43;;;26.70;86.30;;;;;;5072576;28;20106;-77
2022/07/24 10:29:23;;;;;;;0.85;0.20;;;26.70;88.20;;;;;;5073845;28;20031;-77
2022/07/24 10:31:58;;;;;;;1.55;0.00;;;26.50;87.40;;;;;;5064861;28;20033;-76
2022/07/24 10:34:24;;;;;;;0.95;0.10;;;26.50;89.50;;;;;;5072596;28;20397;-76
2022/07/24 10:37:40;;;;;;;1.10;0.17;;;26.60;88.30;;;;;;5073378;28;20103;-76
2022/07/24 10:40:25;;;;;;;0.20;0.10;;;26.70;89.60;;;;;;5039161;28;20037;-76
2022/07/24 10:43:09;;;;;;;2.47;0.63;;;27.00;87.50;;;;;;5072203;28;20028;-76
2022/07/24 10:45:43;;;;;;;0.00;0.00;;;27.20;83.40;;;;;;5073772;28;20071;-76
2022/07/24 10:48:21;;;;;;;0.40;0.10;;;27.10;82.80;;;;;;5072250;28;20446;-76
2022/07/24 10:50:58;;;;;;;1.50;0.20;;;27.10;87.00;;;;;;5073505;28;20036;-76
2022/07/24 10:53:37;;;;;;;0.50;0.10;;;27.10;82.80;;;;;;5072223;28;20035;-76
2022/07/24 10:56:32;;;;;;;0.75;0.20;;;27.30;83.10;;;;;;5073515;28;20020;-76
2022/07/24 10:59:08;;;;;;;1.30;0.10;;;27.60;82.90;;;;;;5072195;28;20033;-77
2022/07/24 11:01:35;;;;;;;0.35;0.03;;;27.90;83.60;;;;;;5073306;28;20107;-77
2022/07/24 11:04:04;;;;;;;1.40;0.00;;;28.20;81.40;;;;;;5072328;28;20106;-77
2022/07/24 11:06:48;;;;;;;0.75;0.00;;;28.30;80.30;;;;;;5073230;28;20031;-77
2022/07/24 11:09:14;;;;;;;0.10;0.00;;;28.30;80.40;;;;;;5073224;28;20043;-77
2022/07/24 11:12:01;;;;;;;0.57;0.15;;;28.30;78.10;;;;;;5073342;28;20500;-77
2022/07/24 11:14:42;;;;;;;0.65;0.17;;;28.30;79.00;;;;;;5074009;28;20020;-77
2022/07/24 11:17:40;;;;;;;0.73;0.22;;;28.30;78.90;;;;;;5071979;28;20119;-77
2022/07/24 11:20:11;;;;;;;0.05;0.00;;;28.30;78.70;;;;;;5073145;28;20028;-77
2022/07/24 11:22:41;;;;;;;1.05;0.20;;;28.40;78.10;;;;;;5073463;28;20362;-77
2022/07/24 11:25:13;;;;;;;0.85;0.10;;;28.50;77.40;;;;;;5073058;28;20044;-77
2022/07/24 11:27:45;;;;;;;0.52;0.25;;;28.70;77.90;;;;;;5073064;28;20513;-77
2022/07/24 11:30:11;;;;;;;0.50;0.10;;;29.00;77.30;;;;;;5073131;28;20023;-77
2022/07/24 11:32:38;;;;;;;0.10;0.00;;;29.20;75.30;;;;;;5073048;28;20013;-77
2022/07/24 11:35:06;;;;;;;1.17;0.10;;;29.20;73.30;;;;;;5072778;28;20096;-78
2022/07/24 11:37:32;;;;;;;0.10;0.03;;;29.20;73.70;;;;;;5073074;28;20316;-78
2022/07/24 11:39:58;;;;;;;0.50;0.10;;;28.90;73.90;;;;;;5071645;28;20027;-78
2022/07/24 11:42:24;;;;;;;3.90;0.00;;;28.90;73.80;;;;;;5073008;28;20038;-78
2022/07/24 11:44:50;;;;;;;0.25;0.15;;;29.10;73.60;;;;;;5072716;28;20388;-78
2022/07/24 11:47:21;;;;;;;2.53;0.20;;;29.00;72.30;;;;;;5072782;28;20039;-78
2022/07/24 11:49:55;;;;;;;0.32;0.22;;;29.00;73.60;;;;;;5075543;28;20012;-78
2022/07/24 11:52:25;;;;;;;0.40;0.10;;;29.20;72.60;;;;;;5075738;28;20359;-78
2022/07/24 11:54:54;;;;;;;2.60;0.20;;;29.50;72.80;;;;;;5076593;28;20020;-78
2022/07/24 11:57:28;;;;;;;0.17;0.00;;;29.50;71.00;;;;;;5075228;28;20035;-78
2022/07/24 11:59:54;;;;;;;0.80;0.20;;;29.80;71.60;;;;;;5076535;28;20509;-77
2022/07/24 12:02:22;;;;;;;3.22;0.10;;;30.10;73.10;;;;;;5075154;28;20024;-77
2022/07/24 12:04:48;;;;;;;0.30;0.00;;;30.20;70.60;;;;;;5074994;28;20035;-77
2022/07/24 12:07:18;;;;;;;0.15;0.00;;;30.40;69.50;;;;;;5074887;28;20025;-77
2022/07/24 12:09:51;;;;;;;0.40;0.00;;;30.70;69.40;;;;;;5074685;28;20078;-77
2022/07/24 12:12:37;;;;;;;1.13;0.10;;;30.70;68.60;;;;;;5075854;28;20021;-77
2022/07/24 12:15:12;;;;;;;0.10;0.00;;;31.00;68.20;;;;;;5074596;28;20507;-77
2022/07/24 12:17:59;;;;;;;0.10;0.00;;;31.30;69.30;;;;;;5075755;28;20533;-77
2022/07/24 12:20:30;;;;;;;0.10;0.00;;;31.60;66.30;;;;;;5075975;28;20031;-77
2022/07/24 12:22:58;;;;;;;0.80;0.00;;;31.70;66.20;;;;;;5075842;28;20026;-77
2022/07/24 12:25:24;;;;;;;0.60;0.40;;;31.50;65.80;;;;;;5075863;28;20021;-77
2022/07/24 12:27:53;;;;;;;0.38;0.20;;;31.70;66.60;;;;;;5074255;28;20025;-77
2022/07/24 12:30:32;;;;;;;0.10;0.00;;;31.70;64.20;;;;;;5074155;28;20062;-76
2022/07/24 12:33:05;;;;;;;0.10;0.00;;;31.50;63.00;;;;;;5075494;28;20028;-77
2022/07/24 12:35:34;;;;;;;1.10;0.30;;;31.70;63.90;;;;;;5074533;28;20044;-77
2022/07/24 12:38:03;;;;;;;0.32;0.00;;;31.80;62.30;;;;;;5075260;28;20339;-77
2022/07/24 12:40:36;;;;;;;1.95;0.28;;;31.90;61.80;;;;;;5073983;28;20017;-77
2022/07/24 12:43:09;;;;;;;0.10;0.00;;;32.00;63.00;;;;;;5075525;28;20055;-77
2022/07/24 12:45:35;;;;;;;1.08;0.43;;;32.00;61.10;;;;;;5073986;28;20020;-77